createdAt,value
2023-03-08T00:00:18.926Z,8.80
2023-03-08T00:00:40.721Z,8.84
2023-03-08T00:01:03.039Z,8.88
2023-03-08T00:01:26.198Z,8.94
2023-03-08T00:01:48.744Z,8.96
2023-03-08T00:02:10.336Z,8.99
2023-03-08T00:02:31.889Z,9.01
2023-03-08T00:02:53.961Z,9.03
2023-03-08T00:03:16.621Z,8.99
2023-03-08T00:03:38.340Z,9.04
2023-03-08T00:04:00.193Z,9.02
2023-03-08T00:04:21.940Z,9.07
2023-03-08T00:04:44.662Z,9.06
2023-03-08T00:05:07.395Z,9.10
2023-03-08T00:05:29.095Z,9.12
2023-03-08T00:05:50.805Z,9.06
2023-03-08T00:06:15.866Z,9.04
2023-03-08T00:06:37.718Z,9.08
2023-03-08T00:06:59.438Z,9.10
2023-03-08T00:07:21.193Z,9.12
2023-03-08T00:07:42.788Z,9.15
2023-03-08T00:08:05.420Z,9.07
2023-03-08T00:08:27.116Z,9.00
2023-03-08T00:08:49.338Z,8.94
2023-03-08T00:09:11.048Z,8.90
2023-03-08T00:09:32.609Z,8.91
2023-03-08T00:09:55.163Z,8.89
2023-03-08T00:10:17.529Z,8.86
2023-03-08T00:10:39.160Z,8.86
2023-03-08T00:11:04.205Z,8.87
2023-03-08T00:11:26.604Z,8.89
2023-03-08T00:11:49.156Z,8.90
2023-03-08T00:12:10.830Z,8.91
2023-03-08T00:12:32.492Z,8.90
2023-03-08T00:12:54.058Z,8.97
2023-03-08T00:13:16.630Z,9.00
2023-03-08T00:13:38.617Z,8.95
2023-03-08T00:14:01.590Z,8.94
2023-03-08T00:14:23.355Z,8.91
2023-03-08T00:14:46.441Z,8.90
2023-03-08T00:15:08.420Z,8.93
2023-03-08T00:15:30.079Z,8.95
2023-03-08T00:15:53.052Z,8.95
2023-03-08T00:16:15.757Z,8.77
2023-03-08T00:16:38.780Z,8.68
2023-03-08T00:17:00.391Z,8.71
2023-03-08T00:17:22.204Z,8.72
2023-03-08T00:17:44.741Z,8.75
2023-03-08T00:18:06.620Z,8.78
2023-03-08T00:18:28.543Z,8.76
2023-03-08T00:18:51.137Z,8.75
2023-03-08T00:19:12.789Z,8.78
2023-03-08T00:19:34.391Z,8.84
2023-03-08T00:19:56.059Z,8.87
2023-03-08T00:20:18.787Z,8.89
2023-03-08T00:20:40.399Z,8.83
2023-03-08T00:21:04.061Z,8.87
2023-03-08T00:21:25.658Z,8.87
2023-03-08T00:21:48.261Z,8.86
2023-03-08T00:22:10.858Z,8.86
2023-03-08T00:22:35.432Z,8.84
2023-03-08T00:22:57.068Z,8.79
2023-03-08T00:23:19.643Z,8.80
2023-03-08T00:23:42.005Z,8.81
2023-03-08T00:24:03.922Z,8.65
2023-03-08T00:24:25.587Z,8.64
2023-03-08T00:24:48.437Z,8.65
2023-03-08T00:25:10.941Z,8.63
2023-03-08T00:25:32.494Z,8.63
2023-03-08T00:25:54.694Z,8.63
2023-03-08T00:26:16.329Z,8.66
2023-03-08T00:26:38.944Z,8.68
2023-03-08T00:27:00.821Z,8.72
2023-03-08T00:27:22.458Z,8.78
2023-03-08T00:27:44.076Z,8.82
2023-03-08T00:28:05.677Z,8.82
2023-03-08T00:28:27.424Z,8.84
2023-03-08T00:28:50.123Z,8.86
2023-03-08T00:29:11.800Z,8.88
2023-03-08T00:29:33.598Z,8.93
2023-03-08T00:29:55.170Z,8.93
2023-03-08T00:30:18.385Z,8.98
2023-03-08T00:30:40.030Z,8.93
2023-03-08T00:31:03.919Z,8.93
2023-03-08T00:31:25.727Z,8.94
2023-03-08T00:31:50.885Z,8.94
2023-03-08T00:32:16.793Z,8.99
2023-03-08T00:32:38.514Z,9.01
2023-03-08T00:33:00.277Z,9.04
2023-03-08T00:33:21.926Z,9.04
2023-03-08T00:33:44.520Z,9.11
2023-03-08T00:34:08.762Z,9.11
2023-03-08T00:34:30.395Z,9.02
2023-03-08T00:34:53.260Z,9.15
2023-03-08T00:35:15.014Z,9.14
2023-03-08T00:35:36.657Z,9.16
2023-03-08T00:36:00.177Z,9.13
2023-03-08T00:36:22.387Z,9.16
2023-03-08T00:36:45.097Z,9.14
2023-03-08T00:37:06.644Z,9.16
2023-03-08T00:37:28.335Z,9.19
2023-03-08T00:37:49.928Z,9.17
2023-03-08T00:38:11.557Z,9.21
2023-03-08T00:38:36.681Z,9.26
2023-03-08T00:38:58.448Z,9.28
2023-03-08T00:39:20.210Z,9.28
2023-03-08T00:39:42.924Z,9.31
2023-03-08T00:40:05.787Z,9.33
2023-03-08T00:40:29.772Z,9.37
2023-03-08T00:40:52.117Z,9.37
2023-03-08T00:41:14.348Z,9.43
2023-03-08T00:41:36.976Z,9.42
2023-03-08T00:41:58.690Z,9.44
2023-03-08T00:42:21.493Z,9.41
2023-03-08T00:42:43.225Z,9.37
2023-03-08T00:43:04.808Z,9.35
2023-03-08T00:43:28.207Z,9.20
2023-03-08T00:43:50.211Z,9.23
2023-03-08T00:44:11.794Z,9.19
2023-03-08T00:44:33.466Z,9.31
2023-03-08T00:44:56.010Z,9.34
2023-03-08T00:45:17.607Z,9.40
2023-03-08T00:45:39.231Z,9.40
2023-03-08T00:46:00.876Z,9.42
2023-03-08T00:46:23.600Z,9.43
2023-03-08T00:46:45.249Z,9.44
2023-03-08T00:47:10.182Z,9.45
2023-03-08T00:47:31.883Z,9.47
2023-03-08T00:47:54.264Z,9.41
2023-03-08T00:48:18.096Z,9.35
2023-03-08T00:48:40.151Z,9.36
2023-03-08T00:49:04.170Z,9.37
2023-03-08T00:49:26.035Z,9.39
2023-03-08T00:49:48.692Z,9.37
2023-03-08T00:50:11.139Z,9.31
2023-03-08T00:50:32.768Z,9.35
2023-03-08T00:50:54.376Z,9.37
2023-03-08T00:51:18.615Z,9.36
2023-03-08T00:51:41.473Z,9.37
2023-03-08T00:52:05.164Z,9.39
2023-03-08T00:52:26.949Z,9.40
2023-03-08T00:52:49.479Z,9.43
2023-03-08T00:53:11.519Z,9.44
2023-03-08T00:53:35.570Z,9.46
2023-03-08T00:53:57.211Z,9.47
2023-03-08T00:54:19.824Z,9.45
2023-03-08T00:54:41.521Z,9.46
2023-03-08T00:55:03.523Z,9.47
2023-03-08T00:55:25.244Z,9.47
2023-03-08T00:55:49.571Z,9.47
2023-03-08T00:56:13.025Z,9.45
2023-03-08T00:56:34.654Z,9.46
2023-03-08T00:56:56.510Z,9.49
2023-03-08T00:57:18.120Z,9.50
2023-03-08T00:57:39.788Z,9.45
2023-03-08T00:58:02.449Z,9.43
2023-03-08T00:58:25.416Z,9.43
2023-03-08T00:58:47.107Z,9.43
2023-03-08T00:59:09.169Z,9.44
2023-03-08T00:59:30.823Z,9.47
2023-03-08T00:59:54.231Z,9.46
2023-03-08T01:00:17.230Z,9.42
2023-03-08T01:00:38.868Z,9.42
2023-03-08T01:01:00.587Z,9.44
2023-03-08T01:01:23.922Z,9.46
2023-03-08T01:01:47.849Z,9.46
2023-03-08T01:02:10.724Z,9.47
2023-03-08T01:02:34.031Z,9.51
2023-03-08T01:02:56.047Z,9.52
2023-03-08T01:03:18.785Z,9.51
2023-03-08T01:03:41.399Z,9.50
2023-03-08T01:04:03.704Z,9.44
2023-03-08T01:04:25.315Z,9.44
2023-03-08T01:04:46.918Z,9.46
2023-03-08T01:05:10.794Z,9.44
2023-03-08T01:05:32.419Z,9.47
2023-03-08T01:05:55.736Z,9.49
2023-03-08T01:06:18.418Z,9.47
2023-03-08T01:06:40.126Z,9.49
2023-03-08T01:07:05.094Z,9.51
2023-03-08T01:07:28.422Z,9.52
2023-03-08T01:07:51.300Z,9.51
2023-03-08T01:08:14.081Z,9.53
2023-03-08T01:08:36.326Z,9.56
2023-03-08T01:08:59.117Z,9.59
2023-03-08T01:09:20.806Z,9.59
2023-03-08T01:09:42.463Z,9.61
2023-03-08T01:10:05.331Z,9.59
2023-03-08T01:10:27.986Z,9.59
2023-03-08T01:10:52.710Z,9.58
2023-03-08T01:11:20.208Z,9.63
2023-03-08T01:11:44.223Z,9.64
2023-03-08T01:12:53.071Z,9.64
2023-03-08T01:13:17.879Z,9.64
2023-03-08T01:13:39.470Z,9.66
2023-03-08T01:14:03.422Z,9.66
2023-03-08T01:14:25.158Z,9.66
2023-03-08T01:14:47.754Z,9.61
2023-03-08T01:15:10.005Z,9.56
2023-03-08T01:15:35.925Z,9.61
2023-03-08T01:16:00.977Z,9.63
2023-03-08T01:16:24.861Z,9.65
2023-03-08T01:16:46.568Z,9.65
2023-03-08T01:17:08.190Z,9.61
2023-03-08T01:17:32.509Z,9.64
2023-03-08T01:17:54.123Z,9.66
2023-03-08T01:18:15.919Z,9.61
2023-03-08T01:18:37.535Z,9.62
2023-03-08T01:19:01.228Z,9.64
2023-03-08T01:19:22.914Z,9.65
2023-03-08T01:19:44.823Z,9.65
2023-03-08T01:20:07.482Z,9.58
2023-03-08T01:20:29.112Z,9.65
2023-03-08T01:20:56.842Z,9.65
2023-03-08T01:21:18.692Z,9.69
2023-03-08T01:21:40.258Z,9.65
2023-03-08T01:22:01.930Z,9.66
2023-03-08T01:22:24.530Z,9.64
2023-03-08T01:22:46.103Z,9.67
2023-03-08T01:23:08.098Z,9.69
2023-03-08T01:23:30.235Z,9.69
2023-03-08T01:23:53.085Z,9.70
2023-03-08T01:24:15.292Z,9.67
2023-03-08T01:24:36.967Z,9.72
2023-03-08T01:24:58.725Z,9.72
2023-03-08T01:25:23.882Z,9.71
2023-03-08T01:25:45.474Z,9.73
2023-03-08T01:26:08.820Z,9.72
2023-03-08T01:26:30.371Z,9.73
2023-03-08T01:26:55.722Z,9.71
2023-03-08T01:27:17.450Z,9.71
2023-03-08T01:27:39.041Z,9.65
2023-03-08T01:28:00.581Z,9.71
2023-03-08T01:28:22.502Z,9.70
2023-03-08T01:28:45.542Z,9.71
2023-03-08T01:29:07.141Z,9.72
2023-03-08T01:29:29.618Z,9.73
2023-03-08T01:29:53.039Z,9.68
2023-03-08T01:30:15.185Z,9.70
2023-03-08T01:30:37.755Z,9.66
2023-03-08T01:31:04.132Z,9.63
2023-03-08T01:31:27.642Z,9.67
2023-03-08T01:31:50.360Z,9.67
2023-03-08T01:32:13.317Z,9.68
2023-03-08T01:32:36.313Z,9.68
2023-03-08T01:32:57.950Z,9.63
2023-03-08T01:33:21.104Z,9.67
2023-03-08T01:33:45.858Z,9.67
2023-03-08T01:34:10.662Z,9.67
2023-03-08T01:34:32.279Z,9.67
2023-03-08T01:34:53.879Z,9.69
2023-03-08T01:35:15.778Z,9.67
2023-03-08T01:35:38.973Z,9.63
2023-03-08T01:36:03.408Z,9.72
2023-03-08T01:36:26.986Z,9.71
2023-03-08T01:36:49.502Z,9.67
2023-03-08T01:37:13.060Z,9.69
2023-03-08T01:37:37.348Z,9.65
2023-03-08T01:37:59.023Z,9.66
2023-03-08T01:38:21.653Z,9.65
2023-03-08T01:38:44.329Z,9.63
2023-03-08T01:39:05.940Z,9.59
2023-03-08T01:39:27.543Z,9.54
2023-03-08T01:39:50.130Z,9.54
2023-03-08T01:40:15.857Z,9.57
2023-03-08T01:40:37.493Z,9.56
2023-03-08T01:41:01.043Z,9.53
2023-03-08T01:41:25.443Z,9.57
2023-03-08T01:41:47.218Z,9.57
2023-03-08T01:42:08.838Z,9.58
2023-03-08T01:42:30.506Z,9.57
2023-03-08T01:42:53.107Z,9.60
2023-03-08T01:43:23.133Z,9.59
2023-03-08T01:43:46.330Z,9.64
2023-03-08T01:44:15.529Z,9.64
2023-03-08T01:44:56.123Z,9.65
2023-03-08T01:45:55.085Z,9.70
2023-03-08T01:46:24.937Z,9.72
2023-03-08T01:46:50.125Z,9.70
2023-03-08T01:47:23.766Z,9.73
2023-03-08T01:48:08.530Z,9.77
2023-03-08T01:48:58.782Z,9.72
2023-03-08T01:49:24.206Z,9.75
2023-03-08T01:49:45.949Z,9.76
2023-03-08T01:50:11.462Z,9.73
2023-03-08T01:50:33.546Z,9.71
2023-03-08T01:50:55.466Z,9.70
2023-03-08T01:51:22.572Z,9.69
2023-03-08T01:51:49.903Z,9.69
2023-03-08T01:52:14.911Z,9.68
2023-03-08T01:52:42.072Z,9.65
2023-03-08T01:53:03.991Z,9.65
2023-03-08T01:53:25.857Z,9.63
2023-03-08T01:53:47.827Z,9.63
2023-03-08T01:54:13.870Z,9.66
2023-03-08T01:54:39.876Z,9.65
2023-03-08T01:55:05.458Z,9.58
2023-03-08T01:55:28.114Z,9.66
2023-03-08T01:55:49.882Z,9.65
2023-03-08T01:56:13.791Z,9.64
2023-03-08T01:56:35.905Z,9.63
2023-03-08T01:57:02.661Z,9.66
2023-03-08T01:57:26.807Z,9.66
2023-03-08T01:57:51.494Z,9.65
2023-03-08T01:58:13.415Z,9.67
2023-03-08T01:58:36.670Z,9.67
2023-03-08T01:59:00.161Z,9.65
2023-03-08T01:59:23.538Z,9.67
2023-03-08T01:59:49.366Z,9.66
2023-03-08T02:00:14.680Z,9.67
2023-03-08T02:00:39.001Z,9.66
2023-03-08T02:01:00.729Z,9.62
2023-03-08T02:01:23.607Z,9.61
2023-03-08T02:01:46.875Z,9.60
2023-03-08T02:02:09.024Z,9.59
2023-03-08T02:02:36.851Z,9.60
2023-03-08T02:03:03.063Z,9.56
2023-03-08T02:03:26.298Z,9.59
2023-03-08T02:03:48.554Z,9.50
2023-03-08T02:04:12.803Z,9.56
2023-03-08T02:04:35.997Z,9.50
2023-03-08T02:04:57.667Z,9.52
2023-03-08T02:05:22.191Z,9.47
2023-03-08T02:05:48.887Z,9.43
2023-03-08T02:06:16.756Z,9.48
2023-03-08T02:06:38.829Z,9.50
2023-03-08T02:07:00.666Z,9.50
2023-03-08T02:07:22.494Z,9.52
2023-03-08T02:07:46.239Z,9.50
2023-03-08T02:08:07.988Z,9.42
2023-03-08T02:08:33.032Z,9.55
2023-03-08T02:08:56.177Z,9.58
2023-03-08T02:09:18.762Z,9.54
2023-03-08T02:09:40.826Z,9.48
2023-03-08T02:10:02.753Z,9.48
2023-03-08T02:10:25.421Z,9.43
2023-03-08T02:10:50.373Z,9.50
2023-03-08T02:11:13.621Z,9.46
2023-03-08T02:11:37.966Z,9.47
2023-03-08T02:12:04.091Z,9.48
2023-03-08T02:12:26.717Z,9.46
2023-03-08T02:12:48.834Z,9.35
2023-03-08T02:13:11.437Z,9.41
2023-03-08T02:13:37.482Z,9.39
2023-03-08T02:14:00.020Z,9.44
2023-03-08T02:14:22.778Z,9.41
2023-03-08T02:14:46.130Z,9.40
2023-03-08T02:15:10.947Z,9.40
2023-03-08T02:15:33.802Z,9.35
2023-03-08T02:15:57.308Z,9.36
2023-03-08T02:16:20.419Z,9.34
2023-03-08T02:16:44.218Z,9.36
2023-03-08T02:17:05.829Z,9.32
2023-03-08T02:17:27.618Z,9.30
2023-03-08T02:17:49.216Z,9.30
2023-03-08T02:18:10.883Z,9.33
2023-03-08T02:18:34.916Z,9.33
2023-03-08T02:18:58.467Z,9.34
2023-03-08T02:19:26.486Z,9.37
2023-03-08T02:19:53.760Z,9.34
2023-03-08T02:20:19.782Z,9.41
2023-03-08T02:20:42.091Z,9.39
2023-03-08T02:21:03.850Z,9.41
2023-03-08T02:21:26.326Z,9.44
2023-03-08T02:21:48.892Z,9.43
2023-03-08T02:22:14.104Z,9.46
2023-03-08T02:22:39.484Z,9.45
2023-03-08T02:23:08.821Z,9.48
2023-03-08T02:23:30.490Z,9.49
2023-03-08T02:23:53.546Z,9.50
2023-03-08T02:24:20.280Z,9.47
2023-03-08T02:24:43.320Z,9.45
2023-03-08T02:25:14.482Z,9.47
2023-03-08T02:25:36.231Z,9.49
2023-03-08T02:26:00.924Z,9.48
2023-03-08T02:26:24.413Z,9.44
2023-03-08T02:26:46.903Z,9.44
2023-03-08T02:27:14.077Z,9.43
2023-03-08T02:27:35.656Z,9.40
2023-03-08T02:27:57.963Z,9.36
2023-03-08T02:28:21.085Z,9.37
2023-03-08T02:28:43.638Z,9.35
2023-03-08T02:29:05.287Z,9.31
2023-03-08T02:29:26.966Z,9.30
2023-03-08T02:29:49.602Z,9.28
2023-03-08T02:30:13.678Z,9.26
2023-03-08T02:30:39.582Z,9.24
2023-03-08T02:31:01.264Z,9.26
2023-03-08T02:31:22.876Z,9.25
2023-03-08T02:31:44.569Z,9.22
2023-03-08T02:32:06.796Z,9.20
2023-03-08T02:32:29.459Z,9.19
2023-03-08T02:32:51.193Z,9.14
2023-03-08T02:33:12.839Z,9.17
2023-03-08T02:33:34.871Z,9.12
2023-03-08T02:33:57.497Z,9.12
2023-03-08T02:34:21.925Z,9.15
2023-03-08T02:34:43.928Z,9.09
2023-03-08T02:35:07.930Z,9.16
2023-03-08T02:35:30.210Z,9.13
2023-03-08T02:35:53.284Z,9.14
2023-03-08T02:36:14.981Z,9.07
2023-03-08T02:36:37.520Z,9.10
2023-03-08T02:37:00.148Z,9.09
2023-03-08T02:37:21.746Z,9.11
2023-03-08T02:37:44.738Z,9.10
2023-03-08T02:38:06.336Z,9.14
2023-03-08T02:38:28.017Z,9.14
2023-03-08T02:38:50.548Z,9.14
2023-03-08T02:39:12.246Z,9.01
2023-03-08T02:39:33.992Z,9.16
2023-03-08T02:39:55.639Z,9.16
2023-03-08T02:40:18.843Z,9.19
2023-03-08T02:40:41.074Z,9.17
2023-03-08T02:41:02.673Z,9.14
2023-03-08T02:41:24.325Z,9.21
2023-03-08T02:41:46.865Z,9.21
2023-03-08T02:42:08.520Z,9.23
2023-03-08T02:42:30.286Z,9.24
2023-03-08T02:42:53.528Z,9.25
2023-03-08T02:43:15.228Z,9.26
2023-03-08T02:43:36.853Z,9.27
2023-03-08T02:43:59.454Z,9.28
2023-03-08T02:44:22.162Z,9.30
2023-03-08T02:44:43.872Z,9.29
2023-03-08T02:45:07.052Z,9.32
2023-03-08T02:45:28.690Z,9.32
2023-03-08T02:45:51.395Z,9.32
2023-03-08T02:46:13.301Z,9.32
2023-03-08T02:46:35.073Z,9.34
2023-03-08T02:46:56.693Z,9.32
2023-03-08T02:47:18.391Z,9.32
2023-03-08T02:47:42.606Z,9.30
2023-03-08T02:48:05.973Z,9.31
2023-03-08T02:48:27.658Z,9.33
2023-03-08T02:48:50.669Z,9.29
2023-03-08T02:49:13.234Z,9.32
2023-03-08T02:49:34.788Z,9.35
2023-03-08T02:49:56.382Z,9.40
2023-03-08T02:50:18.159Z,9.36
2023-03-08T02:50:41.156Z,9.39
2023-03-08T02:51:02.951Z,9.40
2023-03-08T02:51:24.560Z,9.32
2023-03-08T02:51:46.165Z,9.40
2023-03-08T02:52:10.315Z,9.42
2023-03-08T02:52:31.986Z,9.42
2023-03-08T02:52:55.019Z,9.44
2023-03-08T02:53:16.737Z,9.45
2023-03-08T02:53:40.511Z,9.43
2023-03-08T02:54:02.185Z,9.42
2023-03-08T02:54:24.027Z,9.39
2023-03-08T02:54:45.644Z,9.27
2023-03-08T02:55:09.270Z,9.27
2023-03-08T02:55:31.144Z,9.30
2023-03-08T02:55:52.949Z,9.28
2023-03-08T02:56:15.534Z,9.30
2023-03-08T02:56:37.439Z,9.31
2023-03-08T02:56:59.329Z,9.24
2023-03-08T02:57:21.328Z,9.28
2023-03-08T02:57:44.464Z,9.29
2023-03-08T02:58:07.148Z,9.29
2023-03-08T02:58:28.718Z,9.28
2023-03-08T02:58:51.356Z,9.28
2023-03-08T02:59:13.043Z,9.27
2023-03-08T02:59:34.749Z,9.27
2023-03-08T02:59:56.761Z,9.26
2023-03-08T03:00:22.199Z,9.28
2023-03-08T03:00:43.888Z,9.28
2023-03-08T03:01:12.014Z,9.28
2023-03-08T03:01:34.621Z,9.28
2023-03-08T03:01:57.213Z,9.31
2023-03-08T03:02:18.869Z,9.31
2023-03-08T03:02:40.479Z,9.32
2023-03-08T03:03:03.105Z,9.36
2023-03-08T03:03:24.822Z,9.34
2023-03-08T03:03:46.452Z,9.29
2023-03-08T03:04:08.088Z,9.26
2023-03-08T03:04:30.711Z,9.28
2023-03-08T03:04:53.346Z,9.28
2023-03-08T03:05:15.111Z,9.27
2023-03-08T03:05:41.432Z,9.25
2023-03-08T03:06:03.050Z,9.20
2023-03-08T03:06:28.184Z,9.23
2023-03-08T03:06:51.542Z,9.26
2023-03-08T03:07:13.310Z,9.28
2023-03-08T03:07:36.309Z,9.28
2023-03-08T03:08:01.286Z,9.29
2023-03-08T03:08:24.061Z,9.32
2023-03-08T03:08:47.851Z,9.35
2023-03-08T03:09:10.273Z,9.36
2023-03-08T03:09:35.820Z,9.35
2023-03-08T03:09:57.833Z,9.40
2023-03-08T03:10:19.625Z,9.36
2023-03-08T03:10:42.713Z,9.36
2023-03-08T03:11:11.286Z,9.35
2023-03-08T03:11:32.993Z,9.36
2023-03-08T03:11:56.474Z,9.36
2023-03-08T03:12:19.396Z,9.33
2023-03-08T03:12:41.254Z,9.25
2023-03-08T03:13:06.586Z,9.22
2023-03-08T03:13:28.199Z,9.22
2023-03-08T03:13:56.652Z,9.18
2023-03-08T03:14:19.942Z,9.23
2023-03-08T03:14:42.128Z,9.20
2023-03-08T03:15:05.638Z,9.26
2023-03-08T03:15:27.292Z,9.20
2023-03-08T03:15:53.250Z,9.28
2023-03-08T03:16:16.434Z,9.29
2023-03-08T03:16:38.104Z,9.30
2023-03-08T03:16:59.702Z,9.31
2023-03-08T03:17:21.485Z,9.35
2023-03-08T03:17:44.111Z,9.35
2023-03-08T03:18:06.041Z,9.27
2023-03-08T03:18:27.730Z,9.28
2023-03-08T03:18:49.451Z,9.26
2023-03-08T03:19:12.581Z,9.08
2023-03-08T03:19:34.487Z,9.31
2023-03-08T03:19:56.316Z,9.31
2023-03-08T03:20:18.333Z,9.35
2023-03-08T03:20:40.898Z,9.37
2023-03-08T03:21:04.933Z,9.40
2023-03-08T03:21:26.587Z,9.42
2023-03-08T03:21:48.232Z,9.37
2023-03-08T03:22:10.820Z,9.41
2023-03-08T03:22:32.664Z,9.44
2023-03-08T03:22:54.450Z,9.46
2023-03-08T03:23:26.529Z,9.48
2023-03-08T03:23:48.994Z,9.49
2023-03-08T03:24:14.084Z,9.50
2023-03-08T03:24:41.172Z,9.46
2023-03-08T03:25:04.133Z,9.48
2023-03-08T03:25:26.176Z,9.45
2023-03-08T03:25:47.800Z,9.47
2023-03-08T03:26:14.105Z,9.48
2023-03-08T03:26:37.032Z,9.45
2023-03-08T03:26:58.824Z,9.47
2023-03-08T03:27:23.835Z,9.51
2023-03-08T03:27:45.717Z,9.52
2023-03-08T03:28:07.638Z,9.44
2023-03-08T03:28:31.818Z,9.41
2023-03-08T03:28:56.594Z,9.48
2023-03-08T03:29:22.328Z,9.44
2023-03-08T03:29:48.781Z,9.54
2023-03-08T03:30:13.903Z,9.57
2023-03-08T03:30:35.790Z,9.57
2023-03-08T03:30:58.614Z,9.57
2023-03-08T03:31:22.390Z,9.47
2023-03-08T03:31:45.116Z,9.47
2023-03-08T03:32:08.204Z,9.46
2023-03-08T03:32:29.933Z,9.46
2023-03-08T03:32:51.634Z,9.47
2023-03-08T03:33:19.824Z,9.43
2023-03-08T03:33:42.074Z,9.44
2023-03-08T03:34:04.133Z,9.43
2023-03-08T03:34:26.482Z,9.43
2023-03-08T03:34:48.232Z,9.44
2023-03-08T03:35:12.700Z,9.46
2023-03-08T03:35:37.612Z,9.35
2023-03-08T03:35:59.505Z,9.42
2023-03-08T03:36:22.738Z,9.43
2023-03-08T03:36:45.811Z,9.42
2023-03-08T03:37:07.534Z,9.43
2023-03-08T03:37:29.624Z,9.43
2023-03-08T03:37:51.571Z,9.42
2023-03-08T03:38:13.129Z,9.43
2023-03-08T03:38:38.246Z,9.41
2023-03-08T03:38:59.999Z,9.43
2023-03-08T03:39:21.905Z,9.46
2023-03-08T03:39:44.123Z,9.45
2023-03-08T03:40:12.268Z,9.44
2023-03-08T03:40:33.873Z,9.42
2023-03-08T03:41:01.795Z,9.41
2023-03-08T03:41:24.078Z,9.42
2023-03-08T03:41:55.737Z,9.42
2023-03-08T03:42:18.319Z,9.40
2023-03-08T03:42:49.934Z,9.34
2023-03-08T03:43:12.520Z,9.32
2023-03-08T03:43:35.513Z,9.33
2023-03-08T03:43:58.331Z,9.34
2023-03-08T03:44:19.998Z,9.31
2023-03-08T03:44:44.778Z,9.32
2023-03-08T03:45:11.034Z,9.32
2023-03-08T03:45:32.889Z,9.28
2023-03-08T03:45:56.192Z,9.10
2023-03-08T03:46:20.917Z,9.21
2023-03-08T03:46:45.683Z,9.19
2023-03-08T03:47:10.554Z,9.20
2023-03-08T03:47:32.327Z,9.18
2023-03-08T03:47:58.302Z,9.21
2023-03-08T03:48:21.597Z,9.24
2023-03-08T03:48:43.493Z,9.27
2023-03-08T03:49:05.990Z,9.31
2023-03-08T03:49:33.303Z,9.31
2023-03-08T03:49:54.993Z,9.33
2023-03-08T03:50:17.988Z,9.31
2023-03-08T03:51:00.161Z,9.32
2023-03-08T03:51:23.884Z,9.34
2023-03-08T03:51:54.290Z,9.34
2023-03-08T03:52:24.862Z,9.34
2023-03-08T03:52:53.147Z,9.36
2023-03-08T03:53:15.770Z,9.35
2023-03-08T03:53:39.060Z,9.38
2023-03-08T03:54:00.886Z,9.39
2023-03-08T03:54:23.259Z,9.34
2023-03-08T03:54:46.012Z,9.30
2023-03-08T03:55:09.255Z,9.34
2023-03-08T03:55:31.220Z,9.38
2023-03-08T03:55:53.455Z,9.35
2023-03-08T03:56:16.798Z,9.28
2023-03-08T03:56:40.032Z,9.34
2023-03-08T03:57:02.718Z,9.37
2023-03-08T03:57:28.742Z,9.26
2023-03-08T03:57:52.668Z,9.25
2023-03-08T03:58:15.677Z,9.27
2023-03-08T03:58:37.370Z,9.26
2023-03-08T03:58:59.685Z,9.29
2023-03-08T03:59:26.218Z,9.28
2023-03-08T03:59:48.356Z,9.23
2023-03-08T04:00:11.596Z,9.23
2023-03-08T04:00:36.976Z,9.24
2023-03-08T04:01:09.204Z,9.24
2023-03-08T04:01:31.741Z,9.21
2023-03-08T04:02:17.603Z,9.21
2023-03-08T04:02:47.161Z,9.26
2023-03-08T04:03:12.052Z,9.27
2023-03-08T04:03:33.866Z,9.23
2023-03-08T04:03:56.827Z,9.25
2023-03-08T04:04:20.449Z,9.14
2023-03-08T04:04:42.685Z,9.16
2023-03-08T04:05:07.249Z,9.15
2023-03-08T04:05:30.919Z,9.16
2023-03-08T04:05:52.916Z,9.20
2023-03-08T04:06:18.112Z,9.18
2023-03-08T04:06:39.768Z,9.19
2023-03-08T04:07:01.347Z,9.20
2023-03-08T04:07:27.842Z,9.21
2023-03-08T04:07:53.331Z,9.22
2023-03-08T04:08:18.098Z,9.17
2023-03-08T04:08:42.416Z,9.19
2023-03-08T04:09:13.238Z,9.15
2023-03-08T04:09:37.124Z,9.14
2023-03-08T04:10:04.866Z,9.15
2023-03-08T04:10:27.477Z,9.14
2023-03-08T04:10:49.213Z,9.14
2023-03-08T04:11:13.008Z,9.13
2023-03-08T04:11:37.109Z,9.20
2023-03-08T04:12:02.496Z,9.21
2023-03-08T04:12:24.646Z,9.23
2023-03-08T04:12:49.616Z,9.13
2023-03-08T04:13:12.619Z,9.25
2023-03-08T04:13:35.509Z,9.21
2023-03-08T04:13:57.764Z,9.19
2023-03-08T04:14:22.001Z,9.21
2023-03-08T04:14:45.159Z,9.20
2023-03-08T04:15:09.070Z,9.13
2023-03-08T04:15:30.990Z,9.15
2023-03-08T04:15:55.565Z,9.15
2023-03-08T04:16:20.284Z,9.15
2023-03-08T04:16:42.223Z,9.06
2023-03-08T04:17:10.765Z,9.05
2023-03-08T04:17:38.499Z,9.04
2023-03-08T04:18:00.897Z,8.94
2023-03-08T04:18:24.748Z,9.08
2023-03-08T04:18:47.207Z,9.07
2023-03-08T04:19:13.234Z,9.10
2023-03-08T04:19:41.953Z,9.07
2023-03-08T04:20:06.896Z,8.99
2023-03-08T04:20:33.215Z,9.06
2023-03-08T04:20:56.043Z,9.09
2023-03-08T04:21:18.289Z,9.13
2023-03-08T04:21:40.322Z,9.14
2023-03-08T04:22:02.093Z,9.04
2023-03-08T04:22:31.238Z,9.17
2023-03-08T04:23:01.225Z,9.17
2023-03-08T04:23:27.987Z,9.16
2023-03-08T04:23:51.330Z,9.13
2023-03-08T04:24:14.148Z,9.12
2023-03-08T04:24:35.842Z,9.10
2023-03-08T04:25:01.838Z,9.12
2023-03-08T04:25:33.188Z,9.09
2023-03-08T04:25:56.101Z,9.07
2023-03-08T04:26:17.863Z,9.08
2023-03-08T04:26:39.824Z,9.07
2023-03-08T04:27:02.403Z,9.09
2023-03-08T04:27:24.686Z,9.12
2023-03-08T04:27:46.472Z,9.13
2023-03-08T04:28:08.365Z,9.12
2023-03-08T04:28:31.697Z,9.09
2023-03-08T04:28:53.774Z,9.04
2023-03-08T04:29:15.783Z,9.06
2023-03-08T04:29:37.753Z,9.07
2023-03-08T04:29:59.392Z,9.07
2023-03-08T04:30:23.867Z,9.09
2023-03-08T04:30:46.798Z,9.13
2023-03-08T04:31:14.889Z,9.09
2023-03-08T04:31:37.881Z,9.08
2023-03-08T04:32:03.960Z,9.10
2023-03-08T04:32:34.871Z,9.08
2023-03-08T04:32:57.658Z,8.98
2023-03-08T04:33:25.014Z,9.15
2023-03-08T04:33:47.862Z,9.02
2023-03-08T04:34:09.590Z,9.14
2023-03-08T04:34:32.362Z,9.17
2023-03-08T04:34:53.970Z,9.16
2023-03-08T04:35:19.133Z,9.09
2023-03-08T04:35:44.406Z,9.14
2023-03-08T04:36:07.040Z,9.13
2023-03-08T04:36:29.924Z,9.15
2023-03-08T04:36:53.888Z,9.18
2023-03-08T04:37:16.541Z,9.20
2023-03-08T04:37:45.390Z,9.20
2023-03-08T04:38:08.588Z,9.21
2023-03-08T04:38:30.693Z,9.21
2023-03-08T04:38:55.164Z,9.17
2023-03-08T04:39:17.756Z,9.18
2023-03-08T04:39:39.601Z,9.16
2023-03-08T04:40:01.846Z,9.07
2023-03-08T04:40:26.117Z,9.15
2023-03-08T04:41:05.329Z,9.15
2023-03-08T04:41:35.070Z,9.09
2023-03-08T04:42:06.148Z,9.09
2023-03-08T04:42:30.247Z,9.07
2023-03-08T04:42:52.245Z,9.10
2023-03-08T04:43:19.421Z,9.13
2023-03-08T04:43:45.252Z,9.04
2023-03-08T04:44:08.382Z,9.05
2023-03-08T04:44:35.515Z,9.08
2023-03-08T04:44:58.732Z,9.07
2023-03-08T04:45:20.800Z,8.99
2023-03-08T04:45:43.448Z,9.02
2023-03-08T04:46:08.208Z,9.03
2023-03-08T04:46:30.362Z,9.07
2023-03-08T04:46:54.172Z,9.05
2023-03-08T04:47:25.422Z,9.02
2023-03-08T04:47:46.999Z,9.02
2023-03-08T04:48:08.961Z,9.05
2023-03-08T04:48:32.225Z,9.04
2023-03-08T04:48:55.679Z,9.05
2023-03-08T04:49:19.527Z,9.09
2023-03-08T04:49:46.839Z,9.08
2023-03-08T04:50:10.600Z,9.13
2023-03-08T04:50:32.415Z,9.12
2023-03-08T04:50:54.761Z,9.12
2023-03-08T04:51:16.750Z,9.10
2023-03-08T04:51:40.821Z,9.12
2023-03-08T04:52:04.413Z,9.13
2023-03-08T04:52:28.586Z,9.04
2023-03-08T04:52:50.214Z,9.08
2023-03-08T04:53:11.981Z,9.11
2023-03-08T04:53:35.823Z,9.08
2023-03-08T04:53:58.817Z,9.07
2023-03-08T04:54:20.913Z,8.96
2023-03-08T04:54:49.347Z,9.08
2023-03-08T04:55:15.658Z,9.08
2023-03-08T04:55:37.382Z,9.07
2023-03-08T04:56:00.494Z,9.02
2023-03-08T04:56:23.147Z,8.95
2023-03-08T04:56:45.806Z,8.97
2023-03-08T04:57:09.544Z,9.00
2023-03-08T04:57:32.526Z,8.97
2023-03-08T04:57:55.306Z,8.96
2023-03-08T04:58:17.897Z,8.94
2023-03-08T04:58:41.022Z,8.84
2023-03-08T04:59:02.721Z,8.90
2023-03-08T04:59:24.363Z,8.91
2023-03-08T04:59:48.022Z,8.93
2023-03-08T05:00:11.066Z,8.97
2023-03-08T05:00:35.158Z,8.91
2023-03-08T05:00:57.283Z,8.88
2023-03-08T05:01:22.156Z,8.90
2023-03-08T05:01:44.339Z,8.97
2023-03-08T05:02:07.882Z,8.96
2023-03-08T05:02:33.335Z,8.99
2023-03-08T05:02:55.147Z,8.98
2023-03-08T05:03:18.345Z,8.98
2023-03-08T05:03:41.772Z,8.99
2023-03-08T05:04:03.408Z,8.98
2023-03-08T05:04:30.928Z,9.00
2023-03-08T05:04:53.561Z,9.02
2023-03-08T05:05:16.280Z,9.02
2023-03-08T05:05:44.097Z,9.03
2023-03-08T05:06:07.086Z,9.06
2023-03-08T05:06:29.672Z,9.02
2023-03-08T05:06:52.490Z,9.06
2023-03-08T05:07:18.673Z,9.05
2023-03-08T05:07:41.515Z,8.99
2023-03-08T05:08:05.090Z,9.02
2023-03-08T05:08:29.173Z,9.06
2023-03-08T05:08:51.059Z,9.04
2023-03-08T05:09:14.443Z,9.05
2023-03-08T05:09:37.582Z,8.95
2023-03-08T05:10:00.506Z,8.97
2023-03-08T05:10:22.180Z,8.97
2023-03-08T05:10:48.716Z,8.95
2023-03-08T05:11:17.288Z,8.93
2023-03-08T05:11:38.996Z,8.96
2023-03-08T05:12:00.665Z,8.97
2023-03-08T05:12:31.054Z,8.93
2023-03-08T05:12:55.158Z,8.93